sensor_id;sensor_type;location;lat;lon;timestamp;temperature;humidity
33903;DHT22;20194;50.950;5.346;2023-02-08T00:02:17;2.80;1.00
33903;DHT22;20194;50.950;5.346;2023-02-08T00:04:42;2.70;1.00
33903;DHT22;20194;50.950;5.346;2023-02-08T00:07:09;2.70;1.00
33903;DHT22;20194;50.950;5.346;2023-02-08T00:09:34;2.70;1.00
33903;DHT22;20194;50.950;5.346;2023-02-08T00:12:00;2.60;1.00
33903;DHT22;20194;50.950;5.346;2023-02-08T00:14:26;2.50;1.00
33903;DHT22;20194;50.950;5.346;2023-02-08T00:16:51;2.60;1.00
33903;DHT22;20194;50.950;5.346;2023-02-08T00:19:17;2.70;1.00
33903;DHT22;20194;50.950;5.346;2023-02-08T00:21:43;2.70;1.00
33903;DHT22;20194;50.950;5.346;2023-02-08T00:24:08;2.70;1.00
33903;DHT22;20194;50.950;5.346;2023-02-08T00:26:34;2.60;1.00
33903;DHT22;20194;50.950;5.346;2023-02-08T00:29:00;2.70;1.00
33903;DHT22;20194;50.950;5.346;2023-02-08T00:31:26;2.70;1.00
33903;DHT22;20194;50.950;5.346;2023-02-08T00:33:51;2.70;1.00
33903;DHT22;20194;50.950;5.346;2023-02-08T00:36:17;2.70;1.00
33903;DHT22;20194;50.950;5.346;2023-02-08T00:38:43;2.50;1.00
33903;DHT22;20194;50.950;5.346;2023-02-08T00:41:09;2.40;1.00
33903;DHT22;20194;50.950;5.346;2023-02-08T00:43:34;2.30;1.00
33903;DHT22;20194;50.950;5.346;2023-02-08T00:46:00;2.30;1.00
33903;DHT22;20194;50.950;5.346;2023-02-08T00:48:27;2.30;1.00
33903;DHT22;20194;50.950;5.346;2023-02-08T00:51:10;2.30;1.00
33903;DHT22;20194;50.950;5.346;2023-02-08T00:53:42;2.30;1.00
33903;DHT22;20194;50.950;5.346;2023-02-08T00:56:09;2.20;1.00
33903;DHT22;20194;50.950;5.346;2023-02-08T00:58:35;2.30;1.00
33903;DHT22;20194;50.950;5.346;2023-02-08T01:01:02;2.10;1.00
33903;DHT22;20194;50.950;5.346;2023-02-08T01:03:28;2.20;1.00
33903;DHT22;20194;50.950;5.346;2023-02-08T01:05:55;2.10;1.00
33903;DHT22;20194;50.950;5.346;2023-02-08T01:08:24;2.20;1.00
33903;DHT22;20194;50.950;5.346;2023-02-08T01:10:50;2.20;1.00
33903;DHT22;20194;50.950;5.346;2023-02-08T01:13:16;2.20;1.00
33903;DHT22;20194;50.950;5.346;2023-02-08T01:15:42;1.90;1.00
33903;DHT22;20194;50.950;5.346;2023-02-08T01:18:08;1.70;1.00
33903;DHT22;20194;50.950;5.346;2023-02-08T01:20:35;1.80;1.00
33903;DHT22;20194;50.950;5.346;2023-02-08T01:23:02;1.90;1.00
33903;DHT22;20194;50.950;5.346;2023-02-08T01:25:28;1.90;1.00
33903;DHT22;20194;50.950;5.346;2023-02-08T01:27:54;2.00;1.00
33903;DHT22;20194;50.950;5.346;2023-02-08T01:30:22;2.00;1.00
33903;DHT22;20194;50.950;5.346;2023-02-08T01:32:48;2.10;1.00
33903;DHT22;20194;50.950;5.346;2023-02-08T01:35:14;2.10;1.00
33903;DHT22;20194;50.950;5.346;2023-02-08T01:37:39;2.10;1.00
33903;DHT22;20194;50.950;5.346;2023-02-08T01:40:06;2.10;1.00
33903;DHT22;20194;50.950;5.346;2023-02-08T01:42:32;2.00;1.00
33903;DHT22;20194;50.950;5.346;2023-02-08T01:48:11;1.90;1.00
33903;DHT22;20194;50.950;5.346;2023-02-08T01:50:48;1.80;1.00
33903;DHT22;20194;50.950;5.346;2023-02-08T01:53:15;1.80;1.00
33903;DHT22;20194;50.950;5.346;2023-02-08T01:55:46;1.80;1.00
33903;DHT22;20194;50.950;5.346;2023-02-08T01:58:13;1.70;1.00
33903;DHT22;20194;50.950;5.346;2023-02-08T02:00:39;1.80;1.00
33903;DHT22;20194;50.950;5.346;2023-02-08T02:03:05;1.70;1.00
33903;DHT22;20194;50.950;5.346;2023-02-08T02:05:37;1.70;1.00
33903;DHT22;20194;50.950;5.346;2023-02-08T02:08:05;1.60;1.00
33903;DHT22;20194;50.950;5.346;2023-02-08T02:10:35;1.60;1.00
33903;DHT22;20194;50.950;5.346;2023-02-08T02:13:13;1.60;1.00
33903;DHT22;20194;50.950;5.346;2023-02-08T02:15:42;1.60;1.00
33903;DHT22;20194;50.950;5.346;2023-02-08T02:18:09;1.60;1.00
33903;DHT22;20194;50.950;5.346;2023-02-08T02:26:24;1.60;1.00
33903;DHT22;20194;50.950;5.346;2023-02-08T02:29:03;1.60;1.00
33903;DHT22;20194;50.950;5.346;2023-02-08T02:32:03;1.60;1.00
33903;DHT22;20194;50.950;5.346;2023-02-08T02:34:49;1.60;1.00
33903;DHT22;20194;50.950;5.346;2023-02-08T02:48:41;1.50;1.00
33903;DHT22;20194;50.950;5.346;2023-02-08T02:51:16;1.50;1.00
33903;DHT22;20194;50.950;5.346;2023-02-08T02:53:50;1.40;1.00
33903;DHT22;20194;50.950;5.346;2023-02-08T02:56:32;1.40;1.00
33903;DHT22;20194;50.950;5.346;2023-02-08T02:59:04;1.40;1.00
33903;DHT22;20194;50.950;5.346;2023-02-08T03:01:30;1.20;1.00
33903;DHT22;20194;50.950;5.346;2023-02-08T03:03:56;1.10;1.00
33903;DHT22;20194;50.950;5.346;2023-02-08T03:06:34;1.10;1.00
33903;DHT22;20194;50.950;5.346;2023-02-08T03:15:02;1.30;1.00
33903;DHT22;20194;50.950;5.346;2023-02-08T03:17:37;1.30;1.00
33903;DHT22;20194;50.950;5.346;2023-02-08T03:20:15;1.20;1.00
33903;DHT22;20194;50.950;5.346;2023-02-08T03:25:21;1.10;1.00
33903;DHT22;20194;50.950;5.346;2023-02-08T03:30:21;1.20;1.00
33903;DHT22;20194;50.950;5.346;2023-02-08T03:35:58;1.20;1.00
33903;DHT22;20194;50.950;5.346;2023-02-08T03:38:40;1.10;1.00
33903;DHT22;20194;50.950;5.346;2023-02-08T03:41:12;1.10;1.00
33903;DHT22;20194;50.950;5.346;2023-02-08T03:43:46;1.10;1.00
33903;DHT22;20194;50.950;5.346;2023-02-08T03:46:32;1.10;1.00
33903;DHT22;20194;50.950;5.346;2023-02-08T03:49:03;1.10;1.00
33903;DHT22;20194;50.950;5.346;2023-02-08T03:51:33;1.10;1.00
33903;DHT22;20194;50.950;5.346;2023-02-08T03:54:05;1.00;1.00
33903;DHT22;20194;50.950;5.346;2023-02-08T03:56:41;1.00;1.00
33903;DHT22;20194;50.950;5.346;2023-02-08T03:59:15;1.00;1.00
33903;DHT22;20194;50.950;5.346;2023-02-08T04:01:49;0.90;1.00
33903;DHT22;20194;50.950;5.346;2023-02-08T04:04:17;0.70;1.00
33903;DHT22;20194;50.950;5.346;2023-02-08T04:06:44;0.70;1.00
33903;DHT22;20194;50.950;5.346;2023-02-08T04:09:10;0.90;1.00
33903;DHT22;20194;50.950;5.346;2023-02-08T04:11:36;0.90;1.00
33903;DHT22;20194;50.950;5.346;2023-02-08T04:14:02;0.90;1.00
33903;DHT22;20194;50.950;5.346;2023-02-08T04:16:27;0.90;1.00
33903;DHT22;20194;50.950;5.346;2023-02-08T04:18:53;0.80;1.00
33903;DHT22;20194;50.950;5.346;2023-02-08T04:21:19;0.90;1.00
33903;DHT22;20194;50.950;5.346;2023-02-08T04:23:45;0.90;1.00
33903;DHT22;20194;50.950;5.346;2023-02-08T04:26:11;1.00;1.00
33903;DHT22;20194;50.950;5.346;2023-02-08T04:28:36;1.00;1.00
33903;DHT22;20194;50.950;5.346;2023-02-08T04:31:02;1.00;1.00
33903;DHT22;20194;50.950;5.346;2023-02-08T04:33:28;1.00;1.00
33903;DHT22;20194;50.950;5.346;2023-02-08T04:35:54;1.00;1.00
33903;DHT22;20194;50.950;5.346;2023-02-08T04:38:19;1.00;1.00
33903;DHT22;20194;50.950;5.346;2023-02-08T04:40:45;0.90;1.00
33903;DHT22;20194;50.950;5.346;2023-02-08T04:43:10;0.90;1.00
33903;DHT22;20194;50.950;5.346;2023-02-08T04:45:36;1.00;1.00
33903;DHT22;20194;50.950;5.346;2023-02-08T04:48:03;1.00;1.00
33903;DHT22;20194;50.950;5.346;2023-02-08T04:50:29;0.90;1.00
33903;DHT22;20194;50.950;5.346;2023-02-08T04:52:54;0.80;1.00
33903;DHT22;20194;50.950;5.346;2023-02-08T04:55:20;0.80;1.00
33903;DHT22;20194;50.950;5.346;2023-02-08T04:57:46;0.80;1.00
33903;DHT22;20194;50.950;5.346;2023-02-08T05:00:13;0.80;1.00
33903;DHT22;20194;50.950;5.346;2023-02-08T05:02:39;0.90;1.00
33903;DHT22;20194;50.950;5.346;2023-02-08T05:05:04;0.80;1.00
33903;DHT22;20194;50.950;5.346;2023-02-08T05:07:30;0.90;1.00
33903;DHT22;20194;50.950;5.346;2023-02-08T05:09:56;0.80;1.00
33903;DHT22;20194;50.950;5.346;2023-02-08T05:12:22;0.80;1.00
33903;DHT22;20194;50.950;5.346;2023-02-08T05:14:47;0.90;1.00
33903;DHT22;20194;50.950;5.346;2023-02-08T05:17:13;0.90;1.00
33903;DHT22;20194;50.950;5.346;2023-02-08T05:19:40;0.80;1.00
33903;DHT22;20194;50.950;5.346;2023-02-08T05:22:05;0.80;1.00
33903;DHT22;20194;50.950;5.346;2023-02-08T05:24:31;0.80;1.00
33903;DHT22;20194;50.950;5.346;2023-02-08T05:26:57;0.80;1.00
33903;DHT22;20194;50.950;5.346;2023-02-08T05:29:23;0.80;1.00
33903;DHT22;20194;50.950;5.346;2023-02-08T05:31:48;0.90;1.00
33903;DHT22;20194;50.950;5.346;2023-02-08T05:34:14;0.90;1.00
33903;DHT22;20194;50.950;5.346;2023-02-08T05:36:40;0.80;1.00
33903;DHT22;20194;50.950;5.346;2023-02-08T05:39:06;0.80;1.00
33903;DHT22;20194;50.950;5.346;2023-02-08T05:41:32;0.80;1.00
33903;DHT22;20194;50.950;5.346;2023-02-08T05:43:58;0.80;1.00
33903;DHT22;20194;50.950;5.346;2023-02-08T05:46:23;0.80;1.00
33903;DHT22;20194;50.950;5.346;2023-02-08T05:48:49;0.60;1.00
33903;DHT22;20194;50.950;5.346;2023-02-08T05:51:15;0.70;1.00
33903;DHT22;20194;50.950;5.346;2023-02-08T05:53:40;0.70;1.00
33903;DHT22;20194;50.950;5.346;2023-02-08T05:56:08;0.70;1.00
33903;DHT22;20194;50.950;5.346;2023-02-08T05:58:33;0.80;1.00
33903;DHT22;20194;50.950;5.346;2023-02-08T06:00:59;0.80;1.00
33903;DHT22;20194;50.950;5.346;2023-02-08T06:03:25;0.80;1.00
33903;DHT22;20194;50.950;5.346;2023-02-08T06:05:51;0.70;1.00
33903;DHT22;20194;50.950;5.346;2023-02-08T06:08:17;0.70;1.00
33903;DHT22;20194;50.950;5.346;2023-02-08T06:10:43;0.60;1.00
33903;DHT22;20194;50.950;5.346;2023-02-08T06:13:12;0.60;1.00
33903;DHT22;20194;50.950;5.346;2023-02-08T06:15:38;0.50;1.10
33903;DHT22;20194;50.950;5.346;2023-02-08T06:18:04;0.50;3.00
33903;DHT22;20194;50.950;5.346;2023-02-08T06:20:30;0.50;1.70
33903;DHT22;20194;50.950;5.346;2023-02-08T06:22:56;0.50;2.30
33903;DHT22;20194;50.950;5.346;2023-02-08T06:25:21;0.60;1.00
33903;DHT22;20194;50.950;5.346;2023-02-08T06:27:47;0.60;1.20
33903;DHT22;20194;50.950;5.346;2023-02-08T06:30:13;0.60;1.00
33903;DHT22;20194;50.950;5.346;2023-02-08T06:32:38;0.50;1.00
33903;DHT22;20194;50.950;5.346;2023-02-08T06:35:04;0.60;1.00
33903;DHT22;20194;50.950;5.346;2023-02-08T06:37:30;0.50;1.00
33903;DHT22;20194;50.950;5.346;2023-02-08T06:39:56;0.50;1.00
33903;DHT22;20194;50.950;5.346;2023-02-08T06:42:22;0.60;1.00
33903;DHT22;20194;50.950;5.346;2023-02-08T06:44:47;0.60;1.00
33903;DHT22;20194;50.950;5.346;2023-02-08T06:47:15;0.60;1.00
33903;DHT22;20194;50.950;5.346;2023-02-08T06:49:40;0.70;1.00
33903;DHT22;20194;50.950;5.346;2023-02-08T06:52:06;0.70;1.00
33903;DHT22;20194;50.950;5.346;2023-02-08T06:54:32;0.60;1.00
33903;DHT22;20194;50.950;5.346;2023-02-08T06:56:57;0.70;1.00
33903;DHT22;20194;50.950;5.346;2023-02-08T06:59:24;0.70;1.00
33903;DHT22;20194;50.950;5.346;2023-02-08T07:01:50;0.60;1.00
33903;DHT22;20194;50.950;5.346;2023-02-08T07:04:15;0.70;1.00
33903;DHT22;20194;50.950;5.346;2023-02-08T07:06:41;0.70;1.00
33903;DHT22;20194;50.950;5.346;2023-02-08T07:09:07;0.70;1.00
33903;DHT22;20194;50.950;5.346;2023-02-08T07:11:32;0.70;1.00
33903;DHT22;20194;50.950;5.346;2023-02-08T07:13:58;0.70;1.00
33903;DHT22;20194;50.950;5.346;2023-02-08T07:16:24;0.60;1.00
33903;DHT22;20194;50.950;5.346;2023-02-08T07:18:50;0.50;1.00
33903;DHT22;20194;50.950;5.346;2023-02-08T07:21:15;0.70;1.00
33903;DHT22;20194;50.950;5.346;2023-02-08T07:23:41;0.70;1.00
33903;DHT22;20194;50.950;5.346;2023-02-08T07:26:09;0.60;1.00
33903;DHT22;20194;50.950;5.346;2023-02-08T07:28:37;0.70;1.00
33903;DHT22;20194;50.950;5.346;2023-02-08T07:31:12;0.80;1.00
33903;DHT22;20194;50.950;5.346;2023-02-08T07:33:38;0.70;1.00
33903;DHT22;20194;50.950;5.346;2023-02-08T07:36:05;0.70;1.00
33903;DHT22;20194;50.950;5.346;2023-02-08T07:38:32;0.80;1.00
33903;DHT22;20194;50.950;5.346;2023-02-08T07:41:10;0.80;1.00
33903;DHT22;20194;50.950;5.346;2023-02-08T07:43:37;0.90;1.00
33903;DHT22;20194;50.950;5.346;2023-02-08T07:46:10;0.90;1.00
33903;DHT22;20194;50.950;5.346;2023-02-08T07:48:36;0.90;1.00
33903;DHT22;20194;50.950;5.346;2023-02-08T07:51:02;0.90;1.00
33903;DHT22;20194;50.950;5.346;2023-02-08T07:53:28;1.00;1.00
33903;DHT22;20194;50.950;5.346;2023-02-08T07:55:54;0.90;1.00
33903;DHT22;20194;50.950;5.346;2023-02-08T07:58:20;1.00;1.00
33903;DHT22;20194;50.950;5.346;2023-02-08T08:00:45;1.00;1.00
33903;DHT22;20194;50.950;5.346;2023-02-08T08:03:11;1.10;1.00
33903;DHT22;20194;50.950;5.346;2023-02-08T08:05:39;1.10;1.00
33903;DHT22;20194;50.950;5.346;2023-02-08T08:08:06;1.10;1.00
33903;DHT22;20194;50.950;5.346;2023-02-08T08:10:31;1.10;1.00
33903;DHT22;20194;50.950;5.346;2023-02-08T08:12:57;1.20;1.00
33903;DHT22;20194;50.950;5.346;2023-02-08T08:15:23;1.10;1.00
33903;DHT22;20194;50.950;5.346;2023-02-08T08:17:48;1.20;1.00
33903;DHT22;20194;50.950;5.346;2023-02-08T08:20:15;1.20;1.00
33903;DHT22;20194;50.950;5.346;2023-02-08T08:22:41;1.00;1.00
33903;DHT22;20194;50.950;5.346;2023-02-08T08:25:07;1.00;1.00
33903;DHT22;20194;50.950;5.346;2023-02-08T08:27:33;1.10;1.00
33903;DHT22;20194;50.950;5.346;2023-02-08T08:29:59;1.10;1.00
33903;DHT22;20194;50.950;5.346;2023-02-08T08:32:25;1.30;1.00
33903;DHT22;20194;50.950;5.346;2023-02-08T08:34:51;1.30;1.00
33903;DHT22;20194;50.950;5.346;2023-02-08T08:37:16;1.40;1.00
33903;DHT22;20194;50.950;5.346;2023-02-08T08:39:42;1.50;1.00
33903;DHT22;20194;50.950;5.346;2023-02-08T08:42:08;1.50;1.00
33903;DHT22;20194;50.950;5.346;2023-02-08T08:44:33;1.40;1.00
33903;DHT22;20194;50.950;5.346;2023-02-08T08:47:00;1.30;2.00
33903;DHT22;20194;50.950;5.346;2023-02-08T08:49:27;1.40;1.50
33903;DHT22;20194;50.950;5.346;2023-02-08T08:51:54;1.50;1.00
33903;DHT22;20194;50.950;5.346;2023-02-08T08:54:20;1.50;2.00
33903;DHT22;20194;50.950;5.346;2023-02-08T08:56:46;1.50;1.30
33903;DHT22;20194;50.950;5.346;2023-02-08T08:59:13;1.60;1.00
33903;DHT22;20194;50.950;5.346;2023-02-08T09:01:39;1.60;1.00
33903;DHT22;20194;50.950;5.346;2023-02-08T09:04:07;1.70;1.00
33903;DHT22;20194;50.950;5.346;2023-02-08T09:06:33;1.60;1.20
33903;DHT22;20194;50.950;5.346;2023-02-08T09:08:59;1.50;3.10
33903;DHT22;20194;50.950;5.346;2023-02-08T09:11:25;1.50;6.00
33903;DHT22;20194;50.950;5.346;2023-02-08T09:13:51;1.60;6.70
33903;DHT22;20194;50.950;5.346;2023-02-08T09:16:21;1.70;4.90
33903;DHT22;20194;50.950;5.346;2023-02-08T09:18:47;1.60;4.60
33903;DHT22;20194;50.950;5.346;2023-02-08T09:21:21;1.70;6.40
33903;DHT22;20194;50.950;5.346;2023-02-08T09:23:47;1.90;5.60
33903;DHT22;20194;50.950;5.346;2023-02-08T09:26:15;2.20;4.90
33903;DHT22;20194;50.950;5.346;2023-02-08T09:28:43;2.40;1.00
33903;DHT22;20194;50.950;5.346;2023-02-08T09:31:18;2.30;1.00
33903;DHT22;20194;50.950;5.346;2023-02-08T09:33:46;2.60;1.00
33903;DHT22;20194;50.950;5.346;2023-02-08T09:36:12;2.90;1.00
33903;DHT22;20194;50.950;5.346;2023-02-08T09:38:39;3.10;1.00
33903;DHT22;20194;50.950;5.346;2023-02-08T09:41:31;3.40;1.00
33903;DHT22;20194;50.950;5.346;2023-02-08T09:44:09;3.60;1.00
33903;DHT22;20194;50.950;5.346;2023-02-08T09:46:40;3.70;1.00
33903;DHT22;20194;50.950;5.346;2023-02-08T09:49:16;4.00;1.00
33903;DHT22;20194;50.950;5.346;2023-02-08T09:51:46;4.30;1.00
33903;DHT22;20194;50.950;5.346;2023-02-08T09:54:40;4.60;1.00
33903;DHT22;20194;50.950;5.346;2023-02-08T09:57:12;4.70;1.00
33903;DHT22;20194;50.950;5.346;2023-02-08T09:59:39;5.10;1.00
33903;DHT22;20194;50.950;5.346;2023-02-08T10:02:22;5.40;1.00
33903;DHT22;20194;50.950;5.346;2023-02-08T10:07:29;5.90;1.00
33903;DHT22;20194;50.950;5.346;2023-02-08T10:09:59;6.00;1.00
33903;DHT22;20194;50.950;5.346;2023-02-08T10:15:20;6.30;1.00
33903;DHT22;20194;50.950;5.346;2023-02-08T10:18:05;6.50;99.90
33903;DHT22;20194;50.950;5.346;2023-02-08T10:33:57;7.30;46.30
33903;DHT22;20194;50.950;5.346;2023-02-08T10:36:31;7.30;1.00
33903;DHT22;20194;50.950;5.346;2023-02-08T10:38:58;7.10;1.00
33903;DHT22;20194;50.950;5.346;2023-02-08T10:41:32;7.10;1.00
33903;DHT22;20194;50.950;5.346;2023-02-08T10:46:50;7.60;99.90
33903;DHT22;20194;50.950;5.346;2023-02-08T10:52:14;7.10;1.00
33903;DHT22;20194;50.950;5.346;2023-02-08T10:54:40;7.30;99.90
33903;DHT22;20194;50.950;5.346;2023-02-08T10:57:21;7.40;1.00
33903;DHT22;20194;50.950;5.346;2023-02-08T10:59:50;7.60;99.90
33903;DHT22;20194;50.950;5.346;2023-02-08T11:02:22;8.00;1.00
33903;DHT22;20194;50.950;5.346;2023-02-08T11:04:58;8.30;1.00
33903;DHT22;20194;50.950;5.346;2023-02-08T11:07:24;8.70;99.90
33903;DHT22;20194;50.950;5.346;2023-02-08T11:09:50;8.70;99.90
33903;DHT22;20194;50.950;5.346;2023-02-08T11:12:21;8.80;1.00
33903;DHT22;20194;50.950;5.346;2023-02-08T11:14:50;9.00;1.00
33903;DHT22;20194;50.950;5.346;2023-02-08T11:17:26;9.20;99.90
33903;DHT22;20194;50.950;5.346;2023-02-08T11:19:52;9.20;99.90
33903;DHT22;20194;50.950;5.346;2023-02-08T11:22:21;9.00;1.00
33903;DHT22;20194;50.950;5.346;2023-02-08T11:25:02;8.60;1.00
33903;DHT22;20194;50.950;5.346;2023-02-08T11:27:37;8.60;1.00
33903;DHT22;20194;50.950;5.346;2023-02-08T11:32:39;9.00;99.90
33903;DHT22;20194;50.950;5.346;2023-02-08T11:35:17;9.30;99.90
33903;DHT22;20194;50.950;5.346;2023-02-08T11:37:54;9.50;99.90
33903;DHT22;20194;50.950;5.346;2023-02-08T11:40:35;9.40;99.90
33903;DHT22;20194;50.950;5.346;2023-02-08T11:43:02;9.70;16.90
33903;DHT22;20194;50.950;5.346;2023-02-08T11:45:30;9.50;1.00
33903;DHT22;20194;50.950;5.346;2023-02-08T11:47:57;9.60;99.90
33903;DHT22;20194;50.950;5.346;2023-02-08T11:53:00;9.90;1.00
33903;DHT22;20194;50.950;5.346;2023-02-08T11:55:30;9.80;99.90
33903;DHT22;20194;50.950;5.346;2023-02-08T12:00:32;9.60;1.00
33903;DHT22;20194;50.950;5.346;2023-02-08T12:03:24;9.70;1.00
33903;DHT22;20194;50.950;5.346;2023-02-08T12:09:06;10.00;96.80
33903;DHT22;20194;50.950;5.346;2023-02-08T12:11:47;9.90;1.00
33903;DHT22;20194;50.950;5.346;2023-02-08T12:22:22;10.20;99.90
33903;DHT22;20194;50.950;5.346;2023-02-08T12:28:05;10.00;99.90
33903;DHT22;20194;50.950;5.346;2023-02-08T12:30:38;10.10;55.60
33903;DHT22;20194;50.950;5.346;2023-02-08T12:44:32;9.30;1.00
33903;DHT22;20194;50.950;5.346;2023-02-08T12:52:41;9.80;21.60
33903;DHT22;20194;50.950;5.346;2023-02-08T12:55:27;10.00;99.90
33903;DHT22;20194;50.950;5.346;2023-02-08T12:58:09;10.00;42.70
33903;DHT22;20194;50.950;5.346;2023-02-08T13:00:40;9.90;1.00
33903;DHT22;20194;50.950;5.346;2023-02-08T13:05:44;9.80;1.00
33903;DHT22;20194;50.950;5.346;2023-02-08T13:08:49;9.90;1.00
33903;DHT22;20194;50.950;5.346;2023-02-08T13:11:38;10.00;1.00
33903;DHT22;20194;50.950;5.346;2023-02-08T13:14:12;10.10;1.00
33903;DHT22;20194;50.950;5.346;2023-02-08T13:16:43;10.20;1.00
33903;DHT22;20194;50.950;5.346;2023-02-08T13:19:23;10.10;1.00
33903;DHT22;20194;50.950;5.346;2023-02-08T13:21:51;10.00;1.00
33903;DHT22;20194;50.950;5.346;2023-02-08T13:24:32;9.90;1.00
33903;DHT22;20194;50.950;5.346;2023-02-08T13:26:59;9.80;1.00
33903;DHT22;20194;50.950;5.346;2023-02-08T13:29:26;10.00;1.00
33903;DHT22;20194;50.950;5.346;2023-02-08T13:31:59;10.10;1.00
33903;DHT22;20194;50.950;5.346;2023-02-08T13:37:04;10.00;1.00
33903;DHT22;20194;50.950;5.346;2023-02-08T13:39:42;9.70;1.00
33903;DHT22;20194;50.950;5.346;2023-02-08T13:44:52;9.60;1.00
33903;DHT22;20194;50.950;5.346;2023-02-08T13:47:59;9.50;1.00
33903;DHT22;20194;50.950;5.346;2023-02-08T13:50:38;9.20;1.00
33903;DHT22;20194;50.950;5.346;2023-02-08T13:53:05;9.20;1.00
33903;DHT22;20194;50.950;5.346;2023-02-08T14:00:29;9.20;1.00
33903;DHT22;20194;50.950;5.346;2023-02-08T14:03:03;9.10;1.00
33903;DHT22;20194;50.950;5.346;2023-02-08T14:05:55;9.10;1.00
33903;DHT22;20194;50.950;5.346;2023-02-08T14:11:46;9.10;1.00
33903;DHT22;20194;50.950;5.346;2023-02-08T14:19:38;8.90;1.00
33903;DHT22;20194;50.950;5.346;2023-02-08T14:24:48;8.80;1.00
33903;DHT22;20194;50.950;5.346;2023-02-08T14:27:39;8.80;1.00
33903;DHT22;20194;50.950;5.346;2023-02-08T14:33:28;8.80;1.00
33903;DHT22;20194;50.950;5.346;2023-02-08T14:35:28;8.80;1.00
33903;DHT22;20194;50.950;5.346;2023-02-08T14:40:54;8.80;99.90
33903;DHT22;20194;50.950;5.346;2023-02-08T14:45:55;8.80;99.90
33903;DHT22;20194;50.950;5.346;2023-02-08T14:48:30;9.00;99.90
33903;DHT22;20194;50.950;5.346;2023-02-08T14:54:23;8.90;99.90
33903;DHT22;20194;50.950;5.346;2023-02-08T14:57:00;8.60;99.90
33903;DHT22;20194;50.950;5.346;2023-02-08T14:59:30;8.50;91.00
33903;DHT22;20194;50.950;5.346;2023-02-08T15:02:01;8.40;99.90
33903;DHT22;20194;50.950;5.346;2023-02-08T15:04:28;8.50;99.90
33903;DHT22;20194;50.950;5.346;2023-02-08T15:09:41;8.60;1.00
33903;DHT22;20194;50.950;5.346;2023-02-08T15:14:42;8.40;1.00
33903;DHT22;20194;50.950;5.346;2023-02-08T15:17:36;8.40;1.00
33903;DHT22;20194;50.950;5.346;2023-02-08T15:20:06;8.40;1.00
33903;DHT22;20194;50.950;5.346;2023-02-08T15:22:37;8.40;1.00
33903;DHT22;20194;50.950;5.346;2023-02-08T15:27:51;8.50;99.90
33903;DHT22;20194;50.950;5.346;2023-02-08T15:32:54;8.40;4.90
33903;DHT22;20194;50.950;5.346;2023-02-08T15:35:21;8.30;99.90
33903;DHT22;20194;50.950;5.346;2023-02-08T15:37:49;8.20;99.90
33903;DHT22;20194;50.950;5.346;2023-02-08T15:40:28;8.20;99.90
33903;DHT22;20194;50.950;5.346;2023-02-08T15:43:01;8.00;99.90
33903;DHT22;20194;50.950;5.346;2023-02-08T15:45:27;8.00;99.90
33903;DHT22;20194;50.950;5.346;2023-02-08T15:47:57;8.00;99.90
33903;DHT22;20194;50.950;5.346;2023-02-08T15:50:24;8.00;44.70
33903;DHT22;20194;50.950;5.346;2023-02-08T15:52:57;8.00;1.00
33903;DHT22;20194;50.950;5.346;2023-02-08T15:55:25;8.10;38.70
33903;DHT22;20194;50.950;5.346;2023-02-08T15:58:05;8.10;99.90
33903;DHT22;20194;50.950;5.346;2023-02-08T16:00:36;8.10;1.00
33903;DHT22;20194;50.950;5.346;2023-02-08T16:03:14;8.20;1.00
33903;DHT22;20194;50.950;5.346;2023-02-08T16:05:40;8.20;99.90
33903;DHT22;20194;50.950;5.346;2023-02-08T16:08:07;8.30;53.90
33903;DHT22;20194;50.950;5.346;2023-02-08T16:10:42;8.20;73.60
33903;DHT22;20194;50.950;5.346;2023-02-08T16:13:29;8.10;1.00
33903;DHT22;20194;50.950;5.346;2023-02-08T16:16:16;8.10;99.90
33903;DHT22;20194;50.950;5.346;2023-02-08T16:23:56;8.00;1.00
33903;DHT22;20194;50.950;5.346;2023-02-08T16:26:26;8.10;99.90
33903;DHT22;20194;50.950;5.346;2023-02-08T16:29:03;7.90;1.00
33903;DHT22;20194;50.950;5.346;2023-02-08T16:31:31;7.90;1.00
33903;DHT22;20194;50.950;5.346;2023-02-08T16:34:06;8.00;51.20
33903;DHT22;20194;50.950;5.346;2023-02-08T16:36:46;8.10;99.90
33903;DHT22;20194;50.950;5.346;2023-02-08T16:42:00;8.10;99.90
33903;DHT22;20194;50.950;5.346;2023-02-08T16:44:29;8.00;24.00
33903;DHT22;20194;50.950;5.346;2023-02-08T16:46:56;8.00;99.90
33903;DHT22;20194;50.950;5.346;2023-02-08T16:49:22;7.90;99.90
33903;DHT22;20194;50.950;5.346;2023-02-08T16:51:48;7.90;99.90
33903;DHT22;20194;50.950;5.346;2023-02-08T16:54:18;8.00;99.90
33903;DHT22;20194;50.950;5.346;2023-02-08T16:56:47;7.90;99.90
33903;DHT22;20194;50.950;5.346;2023-02-08T16:59:18;7.80;99.90
33903;DHT22;20194;50.950;5.346;2023-02-08T17:01:44;7.80;1.00
33903;DHT22;20194;50.950;5.346;2023-02-08T17:04:11;7.70;1.00
33903;DHT22;20194;50.950;5.346;2023-02-08T17:06:40;7.70;99.90
33903;DHT22;20194;50.950;5.346;2023-02-08T17:09:06;7.80;1.00
33903;DHT22;20194;50.950;5.346;2023-02-08T17:11:34;7.80;1.00
33903;DHT22;20194;50.950;5.346;2023-02-08T17:14:00;7.80;1.00
33903;DHT22;20194;50.950;5.346;2023-02-08T17:16:27;7.70;99.90
33903;DHT22;20194;50.950;5.346;2023-02-08T17:18:53;7.60;99.90
33903;DHT22;20194;50.950;5.346;2023-02-08T17:21:20;7.60;99.90
33903;DHT22;20194;50.950;5.346;2023-02-08T17:23:46;7.50;1.00
33903;DHT22;20194;50.950;5.346;2023-02-08T17:28:45;7.60;1.00
33903;DHT22;20194;50.950;5.346;2023-02-08T17:31:11;7.60;1.00
33903;DHT22;20194;50.950;5.346;2023-02-08T17:33:39;7.50;1.00
33903;DHT22;20194;50.950;5.346;2023-02-08T17:36:07;7.60;1.00
33903;DHT22;20194;50.950;5.346;2023-02-08T17:38:33;7.70;1.00
33903;DHT22;20194;50.950;5.346;2023-02-08T17:41:06;7.70;1.00
33903;DHT22;20194;50.950;5.346;2023-02-08T17:43:32;7.80;1.00
33903;DHT22;20194;50.950;5.346;2023-02-08T17:45:58;7.80;1.00
33903;DHT22;20194;50.950;5.346;2023-02-08T17:48:24;7.80;99.90
33903;DHT22;20194;50.950;5.346;2023-02-08T17:50:51;7.70;99.90
33903;DHT22;20194;50.950;5.346;2023-02-08T17:53:18;7.70;99.90
33903;DHT22;20194;50.950;5.346;2023-02-08T17:55:45;7.70;99.90
33903;DHT22;20194;50.950;5.346;2023-02-08T17:58:11;7.60;99.90
33903;DHT22;20194;50.950;5.346;2023-02-08T18:00:37;7.50;99.90
33903;DHT22;20194;50.950;5.346;2023-02-08T18:03:03;7.50;1.00
33903;DHT22;20194;50.950;5.346;2023-02-08T18:05:29;7.40;1.00
33903;DHT22;20194;50.950;5.346;2023-02-08T18:07:56;7.50;1.00
33903;DHT22;20194;50.950;5.346;2023-02-08T18:10:23;7.40;99.90
33903;DHT22;20194;50.950;5.346;2023-02-08T18:12:49;7.40;99.90
33903;DHT22;20194;50.950;5.346;2023-02-08T18:15:18;7.50;99.90
33903;DHT22;20194;50.950;5.346;2023-02-08T18:17:44;7.40;99.90
33903;DHT22;20194;50.950;5.346;2023-02-08T18:20:12;7.30;99.90
33903;DHT22;20194;50.950;5.346;2023-02-08T18:22:39;7.20;99.90
33903;DHT22;20194;50.950;5.346;2023-02-08T18:25:06;7.10;1.00
33903;DHT22;20194;50.950;5.346;2023-02-08T18:27:32;6.90;74.90
33903;DHT22;20194;50.950;5.346;2023-02-08T18:29:58;6.90;99.90
33903;DHT22;20194;50.950;5.346;2023-02-08T18:32:25;6.70;99.90
33903;DHT22;20194;50.950;5.346;2023-02-08T18:34:53;6.70;99.90
33903;DHT22;20194;50.950;5.346;2023-02-08T18:37:19;6.60;1.00
33903;DHT22;20194;50.950;5.346;2023-02-08T18:39:46;6.40;1.00
33903;DHT22;20194;50.950;5.346;2023-02-08T18:42:12;6.30;1.00
33903;DHT22;20194;50.950;5.346;2023-02-08T18:44:38;6.20;1.00
33903;DHT22;20194;50.950;5.346;2023-02-08T18:47:05;6.20;1.00